Impacts METAR Board
IDs:

KJFK - New York/Kennedy Int, NY, US

Updated at: 1700 UTC 22 May 2018
Potential Impact None Slight Moderate High
Time 22/05Z 22/06Z 22/07Z 22/08Z 22/09Z 22/10Z 22/11Z 22/12Z 22/13Z 22/14Z 22/15Z 22/16Z 22/17Z
Temp57 58 56 58 59 58 59 62 64 64 63 65 62
Dewpt52 53 54 54 54 55 55 54 56 53 53 55 51
Altim30.17 30.17 30.18 30.17 30.16 30.16 30.16 30.17 30.18 30.18 30.17 30.16 30.15
VIS10 10 10 10 10 10 10 10 10 10 10 10 10
CIG250 250 250 210 190 190 190 190 85 100 75 80 70
CoverBKNBKNOVCOVCOVCOVCBKNBKNBKNOVCOVCOVCOVC
FltCatVFRVFRVFRVFRVFRVFRVFRVFRVFRVFRVFRVFRVFR
WX--------------------------
WDir220160200220190120120140140150160180170
WSpd5 3 4 5 3 3 6 5 5 7 10 10 8
WGst-- -- -- -- -- -- -- -- -- -- -- -- --
Raw hourly METARs
KJFK 220451Z 22005KT 10SM BKN250 14/11 A3017 RMK AO2 SLP217 T01390111 402280139
KJFK 220551Z 16003KT 10SM BKN250 14/12 A3017 RMK AO2 SLP214 T01440117 10161 20139 58001
KJFK 220651Z 20004KT 10SM OVC250 13/12 A3018 RMK AO2 SLP218 T01330122
KJFK 220751Z 22005KT 10SM OVC210 14/12 A3017 RMK AO2 SLP215 T01440122
KJFK 220851Z 19003KT 10SM BKN190 OVC250 15/12 A3016 RMK AO2 SLP214 T01500122 58000
KJFK 220951Z 12003KT 10SM OVC190 14/13 A3016 RMK AO2 SLP212 T01440128
KJFK 221051Z 12006KT 10SM FEW080 BKN190 BKN260 15/13 A3016 RMK AO2 SLP213 T01500128
KJFK 221151Z 14005KT 10SM SCT080 BKN190 BKN260 17/12 A3017 RMK AO2 SLP217 T01670122 10167 20133 53003
KJFK 221251Z 14005KT 10SM BKN085 BKN170 BKN260 18/13 A3018 RMK AO2 SLP220 T01780133
KJFK 221351Z 15007KT 10SM FEW065 BKN100 OVC150 18/12 A3018 RMK AO2 SLP218 T01780117
KJFK 221451Z 16010KT 10SM BKN075 OVC130 17/12 A3017 RMK AO2 SLP216 VCSH N-NE T01720117 58001
KJFK 221551Z 18010KT 10SM BKN080 OVC130 18/13 A3016 RMK AO2 SLP213 T01830128
KJFK 221651Z 17008KT 10SM BKN070 OVC130 17/11 A3015 RMK AO2 SLP210 VCSH SW T01670106



Page loaded:  17:52 UTC  |   10:52 AM Pacific  |   11:52 AM Mountain  |   12:52 PM Central  |   01:52 PM Eastern

 

ADVISORIES

FORECASTS

FORECASTS

OBSERVATIONS

USER TOOLS

ABOUT US